sensor_id;sensor_type;location;lat;lon;timestamp;P1;durP1;ratioP1;P2;durP2;ratioP2
39486;SDS011;25173;50.430;18.926;2023-07-08T00:01:38;7.53;;;4.80;;
39486;SDS011;25173;50.430;18.926;2023-07-08T00:04:39;9.88;;;5.65;;
39486;SDS011;25173;50.430;18.926;2023-07-08T00:07:40;8.52;;;4.85;;
39486;SDS011;25173;50.430;18.926;2023-07-08T00:10:41;9.98;;;5.03;;
39486;SDS011;25173;50.430;18.926;2023-07-08T00:13:42;10.45;;;5.82;;
39486;SDS011;25173;50.430;18.926;2023-07-08T00:16:42;13.75;;;5.93;;
39486;SDS011;25173;50.430;18.926;2023-07-08T00:19:43;8.68;;;5.57;;
39486;SDS011;25173;50.430;18.926;2023-07-08T00:22:44;10.73;;;5.65;;
39486;SDS011;25173;50.430;18.926;2023-07-08T00:25:47;11.48;;;5.53;;
39486;SDS011;25173;50.430;18.926;2023-07-08T00:28:48;12.77;;;6.30;;
39486;SDS011;25173;50.430;18.926;2023-07-08T00:31:49;14.18;;;6.10;;
39486;SDS011;25173;50.430;18.926;2023-07-08T00:34:50;10.13;;;5.95;;
39486;SDS011;25173;50.430;18.926;2023-07-08T00:37:51;11.90;;;6.32;;
39486;SDS011;25173;50.430;18.926;2023-07-08T00:44:03;10.20;;;5.78;;
39486;SDS011;25173;50.430;18.926;2023-07-08T00:47:05;8.35;;;5.10;;
39486;SDS011;25173;50.430;18.926;2023-07-08T00:50:09;13.45;;;5.93;;
39486;SDS011;25173;50.430;18.926;2023-07-08T00:59:34;11.65;;;6.50;;
39486;SDS011;25173;50.430;18.926;2023-07-08T01:02:44;9.95;;;6.03;;
39486;SDS011;25173;50.430;18.926;2023-07-08T01:05:48;11.63;;;5.53;;
39486;SDS011;25173;50.430;18.926;2023-07-08T01:08:51;8.65;;;4.82;;
39486;SDS011;25173;50.430;18.926;2023-07-08T01:11:54;8.82;;;5.05;;
39486;SDS011;25173;50.430;18.926;2023-07-08T01:14:58;12.63;;;5.43;;
39486;SDS011;25173;50.430;18.926;2023-07-08T01:18:02;10.15;;;6.10;;
39486;SDS011;25173;50.430;18.926;2023-07-08T01:21:04;10.18;;;6.25;;
39486;SDS011;25173;50.430;18.926;2023-07-08T01:24:26;7.07;;;5.13;;
39486;SDS011;25173;50.430;18.926;2023-07-08T01:27:30;12.43;;;5.82;;
39486;SDS011;25173;50.430;18.926;2023-07-08T01:30:35;10.63;;;5.90;;
39486;SDS011;25173;50.430;18.926;2023-07-08T01:33:36;12.93;;;6.18;;
39486;SDS011;25173;50.430;18.926;2023-07-08T01:36:38;7.55;;;6.05;;
39486;SDS011;25173;50.430;18.926;2023-07-08T01:42:43;13.45;;;6.53;;
39486;SDS011;25173;50.430;18.926;2023-07-08T01:45:43;10.90;;;5.65;;
39486;SDS011;25173;50.430;18.926;2023-07-08T01:48:46;10.95;;;6.15;;
39486;SDS011;25173;50.430;18.926;2023-07-08T01:54:55;18.67;;;6.95;;
39486;SDS011;25173;50.430;18.926;2023-07-08T01:57:56;13.00;;;6.32;;
39486;SDS011;25173;50.430;18.926;2023-07-08T02:00:56;12.82;;;6.55;;
39486;SDS011;25173;50.430;18.926;2023-07-08T02:03:57;14.93;;;6.50;;
39486;SDS011;25173;50.430;18.926;2023-07-08T02:06:58;13.02;;;6.97;;
39486;SDS011;25173;50.430;18.926;2023-07-08T02:10:01;10.30;;;6.30;;
39486;SDS011;25173;50.430;18.926;2023-07-08T02:13:02;8.20;;;6.65;;
39486;SDS011;25173;50.430;18.926;2023-07-08T02:16:02;10.05;;;6.43;;
39486;SDS011;25173;50.430;18.926;2023-07-08T02:19:03;9.63;;;6.43;;
39486;SDS011;25173;50.430;18.926;2023-07-08T02:22:05;9.00;;;5.72;;
39486;SDS011;25173;50.430;18.926;2023-07-08T02:25:05;10.13;;;6.35;;
39486;SDS011;25173;50.430;18.926;2023-07-08T02:28:06;13.20;;;6.45;;
39486;SDS011;25173;50.430;18.926;2023-07-08T02:31:07;9.15;;;7.07;;
39486;SDS011;25173;50.430;18.926;2023-07-08T02:34:08;9.70;;;6.18;;
39486;SDS011;25173;50.430;18.926;2023-07-08T02:37:09;12.50;;;6.43;;
39486;SDS011;25173;50.430;18.926;2023-07-08T02:40:09;8.30;;;6.10;;
39486;SDS011;25173;50.430;18.926;2023-07-08T02:43:10;16.35;;;5.93;;
39486;SDS011;25173;50.430;18.926;2023-07-08T02:46:12;9.18;;;5.78;;
39486;SDS011;25173;50.430;18.926;2023-07-08T02:49:13;11.93;;;6.05;;
39486;SDS011;25173;50.430;18.926;2023-07-08T02:52:14;10.20;;;5.63;;
39486;SDS011;25173;50.430;18.926;2023-07-08T02:55:14;8.13;;;5.70;;
39486;SDS011;25173;50.430;18.926;2023-07-08T02:58:15;12.88;;;5.15;;
39486;SDS011;25173;50.430;18.926;2023-07-08T03:01:15;10.23;;;5.78;;
39486;SDS011;25173;50.430;18.926;2023-07-08T03:04:18;12.85;;;6.93;;
39486;SDS011;25173;50.430;18.926;2023-07-08T03:07:19;11.18;;;6.90;;
39486;SDS011;25173;50.430;18.926;2023-07-08T03:10:19;10.93;;;7.43;;
39486;SDS011;25173;50.430;18.926;2023-07-08T03:13:20;9.80;;;6.43;;
39486;SDS011;25173;50.430;18.926;2023-07-08T03:16:20;10.98;;;6.32;;
39486;SDS011;25173;50.430;18.926;2023-07-08T03:19:21;11.10;;;6.50;;
39486;SDS011;25173;50.430;18.926;2023-07-08T03:22:22;9.52;;;6.50;;
39486;SDS011;25173;50.430;18.926;2023-07-08T03:25:23;13.25;;;6.22;;
39486;SDS011;25173;50.430;18.926;2023-07-08T03:28:25;11.60;;;6.75;;
39486;SDS011;25173;50.430;18.926;2023-07-08T03:31:27;12.77;;;6.88;;
39486;SDS011;25173;50.430;18.926;2023-07-08T03:34:28;14.10;;;7.60;;
39486;SDS011;25173;50.430;18.926;2023-07-08T03:37:30;14.98;;;8.23;;
39486;SDS011;25173;50.430;18.926;2023-07-08T03:40:31;11.20;;;7.82;;
39486;SDS011;25173;50.430;18.926;2023-07-08T03:43:31;10.70;;;7.40;;
39486;SDS011;25173;50.430;18.926;2023-07-08T03:46:32;13.18;;;7.90;;
39486;SDS011;25173;50.430;18.926;2023-07-08T03:49:33;15.50;;;8.15;;
39486;SDS011;25173;50.430;18.926;2023-07-08T03:52:34;12.57;;;7.22;;
39486;SDS011;25173;50.430;18.926;2023-07-08T03:55:36;13.95;;;8.23;;
39486;SDS011;25173;50.430;18.926;2023-07-08T03:58:38;17.23;;;8.40;;
39486;SDS011;25173;50.430;18.926;2023-07-08T04:01:40;11.13;;;7.25;;
39486;SDS011;25173;50.430;18.926;2023-07-08T04:04:43;12.30;;;7.82;;
39486;SDS011;25173;50.430;18.926;2023-07-08T04:07:44;15.35;;;8.13;;
39486;SDS011;25173;50.430;18.926;2023-07-08T04:10:45;10.10;;;7.55;;
39486;SDS011;25173;50.430;18.926;2023-07-08T04:13:46;11.65;;;7.07;;
39486;SDS011;25173;50.430;18.926;2023-07-08T04:16:48;10.15;;;7.20;;
39486;SDS011;25173;50.430;18.926;2023-07-08T04:19:50;12.73;;;7.82;;
39486;SDS011;25173;50.430;18.926;2023-07-08T04:22:51;8.70;;;6.63;;
39486;SDS011;25173;50.430;18.926;2023-07-08T04:25:52;14.18;;;7.25;;
39486;SDS011;25173;50.430;18.926;2023-07-08T04:28:55;8.88;;;6.57;;
39486;SDS011;25173;50.430;18.926;2023-07-08T04:31:56;9.55;;;7.22;;
39486;SDS011;25173;50.430;18.926;2023-07-08T04:34:56;11.40;;;7.85;;
39486;SDS011;25173;50.430;18.926;2023-07-08T04:37:57;11.15;;;6.85;;
39486;SDS011;25173;50.430;18.926;2023-07-08T04:40:57;9.43;;;7.38;;
39486;SDS011;25173;50.430;18.926;2023-07-08T04:43:58;12.15;;;7.85;;
39486;SDS011;25173;50.430;18.926;2023-07-08T04:47:02;10.85;;;8.38;;
39486;SDS011;25173;50.430;18.926;2023-07-08T04:50:03;15.25;;;8.40;;
39486;SDS011;25173;50.430;18.926;2023-07-08T04:53:04;14.32;;;9.10;;
39486;SDS011;25173;50.430;18.926;2023-07-08T04:56:04;20.10;;;9.38;;
39486;SDS011;25173;50.430;18.926;2023-07-08T04:59:06;13.95;;;9.43;;
39486;SDS011;25173;50.430;18.926;2023-07-08T05:02:09;18.00;;;10.07;;
39486;SDS011;25173;50.430;18.926;2023-07-08T05:05:09;14.35;;;9.80;;
39486;SDS011;25173;50.430;18.926;2023-07-08T05:08:11;10.23;;;8.88;;
39486;SDS011;25173;50.430;18.926;2023-07-08T05:11:12;17.85;;;9.98;;
39486;SDS011;25173;50.430;18.926;2023-07-08T05:14:13;13.27;;;9.13;;
39486;SDS011;25173;50.430;18.926;2023-07-08T05:17:14;13.45;;;10.32;;
39486;SDS011;25173;50.430;18.926;2023-07-08T05:20:15;13.25;;;9.27;;
39486;SDS011;25173;50.430;18.926;2023-07-08T05:23:15;14.45;;;9.02;;
39486;SDS011;25173;50.430;18.926;2023-07-08T05:26:17;20.33;;;11.60;;
39486;SDS011;25173;50.430;18.926;2023-07-08T05:29:18;22.48;;;10.98;;
39486;SDS011;25173;50.430;18.926;2023-07-08T05:32:19;17.27;;;10.23;;
39486;SDS011;25173;50.430;18.926;2023-07-08T05:35:19;20.58;;;10.95;;
39486;SDS011;25173;50.430;18.926;2023-07-08T05:38:20;20.15;;;10.75;;
39486;SDS011;25173;50.430;18.926;2023-07-08T05:41:28;18.60;;;10.48;;
39486;SDS011;25173;50.430;18.926;2023-07-08T05:44:28;15.00;;;9.05;;
39486;SDS011;25173;50.430;18.926;2023-07-08T05:47:29;19.00;;;10.20;;
39486;SDS011;25173;50.430;18.926;2023-07-08T05:50:29;18.95;;;10.23;;
39486;SDS011;25173;50.430;18.926;2023-07-08T05:53:30;16.40;;;9.32;;
39486;SDS011;25173;50.430;18.926;2023-07-08T05:56:31;20.33;;;10.32;;
39486;SDS011;25173;50.430;18.926;2023-07-08T05:59:35;21.20;;;9.68;;
39486;SDS011;25173;50.430;18.926;2023-07-08T06:02:40;19.98;;;10.27;;
39486;SDS011;25173;50.430;18.926;2023-07-08T06:05:44;20.85;;;10.25;;
39486;SDS011;25173;50.430;18.926;2023-07-08T06:08:48;20.85;;;8.60;;
39486;SDS011;25173;50.430;18.926;2023-07-08T06:11:52;19.20;;;9.40;;
39486;SDS011;25173;50.430;18.926;2023-07-08T06:14:53;18.63;;;9.63;;
39486;SDS011;25173;50.430;18.926;2023-07-08T06:17:53;22.50;;;10.10;;
39486;SDS011;25173;50.430;18.926;2023-07-08T06:20:55;25.50;;;9.90;;
39486;SDS011;25173;50.430;18.926;2023-07-08T06:23:57;23.27;;;9.85;;
39486;SDS011;25173;50.430;18.926;2023-07-08T06:26:57;24.92;;;8.48;;
39486;SDS011;25173;50.430;18.926;2023-07-08T06:29:58;20.83;;;7.35;;
39486;SDS011;25173;50.430;18.926;2023-07-08T06:32:59;20.63;;;7.50;;
39486;SDS011;25173;50.430;18.926;2023-07-08T06:35:59;11.18;;;6.05;;
39486;SDS011;25173;50.430;18.926;2023-07-08T06:39:00;15.55;;;6.45;;
39486;SDS011;25173;50.430;18.926;2023-07-08T06:42:00;13.35;;;6.38;;
39486;SDS011;25173;50.430;18.926;2023-07-08T06:45:06;11.80;;;6.53;;
39486;SDS011;25173;50.430;18.926;2023-07-08T06:48:07;11.20;;;4.95;;
39486;SDS011;25173;50.430;18.926;2023-07-08T06:51:07;16.98;;;5.50;;
39486;SDS011;25173;50.430;18.926;2023-07-08T06:54:08;9.23;;;5.22;;
39486;SDS011;25173;50.430;18.926;2023-07-08T06:57:11;15.38;;;6.15;;
39486;SDS011;25173;50.430;18.926;2023-07-08T07:00:12;7.47;;;3.83;;
39486;SDS011;25173;50.430;18.926;2023-07-08T07:03:13;8.70;;;4.63;;
39486;SDS011;25173;50.430;18.926;2023-07-08T07:06:13;11.65;;;5.63;;
39486;SDS011;25173;50.430;18.926;2023-07-08T07:09:14;6.90;;;4.57;;
39486;SDS011;25173;50.430;18.926;2023-07-08T07:12:14;11.40;;;4.78;;
39486;SDS011;25173;50.430;18.926;2023-07-08T07:15:15;9.55;;;3.90;;
39486;SDS011;25173;50.430;18.926;2023-07-08T07:18:15;7.95;;;4.75;;
39486;SDS011;25173;50.430;18.926;2023-07-08T07:21:16;11.02;;;4.47;;
39486;SDS011;25173;50.430;18.926;2023-07-08T07:24:17;8.63;;;4.47;;
39486;SDS011;25173;50.430;18.926;2023-07-08T07:27:18;7.25;;;4.10;;
39486;SDS011;25173;50.430;18.926;2023-07-08T07:30:19;7.97;;;4.90;;
39486;SDS011;25173;50.430;18.926;2023-07-08T07:33:20;13.57;;;4.55;;
39486;SDS011;25173;50.430;18.926;2023-07-08T07:36:20;6.72;;;3.60;;
39486;SDS011;25173;50.430;18.926;2023-07-08T07:39:21;6.38;;;3.47;;
39486;SDS011;25173;50.430;18.926;2023-07-08T07:42:21;10.85;;;3.50;;
39486;SDS011;25173;50.430;18.926;2023-07-08T07:45:22;7.45;;;3.63;;
39486;SDS011;25173;50.430;18.926;2023-07-08T07:48:22;5.05;;;3.72;;
39486;SDS011;25173;50.430;18.926;2023-07-08T07:51:24;5.72;;;3.85;;
39486;SDS011;25173;50.430;18.926;2023-07-08T07:54:25;7.65;;;4.53;;
39486;SDS011;25173;50.430;18.926;2023-07-08T07:57:26;5.97;;;3.70;;
39486;SDS011;25173;50.430;18.926;2023-07-08T08:00:27;9.77;;;3.03;;
39486;SDS011;25173;50.430;18.926;2023-07-08T08:03:27;6.82;;;3.58;;
39486;SDS011;25173;50.430;18.926;2023-07-08T08:06:28;3.85;;;2.83;;
39486;SDS011;25173;50.430;18.926;2023-07-08T08:09:29;5.78;;;3.60;;
39486;SDS011;25173;50.430;18.926;2023-07-08T08:12:29;9.68;;;4.38;;
39486;SDS011;25173;50.430;18.926;2023-07-08T08:15:30;7.82;;;3.65;;
39486;SDS011;25173;50.430;18.926;2023-07-08T08:18:30;8.45;;;4.57;;
39486;SDS011;25173;50.430;18.926;2023-07-08T08:21:31;7.30;;;4.53;;
39486;SDS011;25173;50.430;18.926;2023-07-08T08:24:32;5.88;;;3.35;;
39486;SDS011;25173;50.430;18.926;2023-07-08T08:27:33;7.53;;;3.47;;
39486;SDS011;25173;50.430;18.926;2023-07-08T08:30:34;8.50;;;3.38;;
39486;SDS011;25173;50.430;18.926;2023-07-08T08:33:35;5.70;;;3.20;;
39486;SDS011;25173;50.430;18.926;2023-07-08T08:36:35;6.40;;;2.97;;
39486;SDS011;25173;50.430;18.926;2023-07-08T08:39:36;5.03;;;2.63;;
39486;SDS011;25173;50.430;18.926;2023-07-08T08:42:40;5.78;;;3.72;;
39486;SDS011;25173;50.430;18.926;2023-07-08T08:45:45;5.53;;;3.30;;
39486;SDS011;25173;50.430;18.926;2023-07-08T08:48:59;5.88;;;3.47;;
39486;SDS011;25173;50.430;18.926;2023-07-08T08:52:07;6.28;;;3.03;;
39486;SDS011;25173;50.430;18.926;2023-07-08T08:55:11;8.50;;;2.72;;
39486;SDS011;25173;50.430;18.926;2023-07-08T09:01:43;4.00;;;2.80;;
39486;SDS011;25173;50.430;18.926;2023-07-08T09:04:46;10.52;;;4.25;;
39486;SDS011;25173;50.430;18.926;2023-07-08T09:07:58;11.48;;;3.03;;
39486;SDS011;25173;50.430;18.926;2023-07-08T09:11:13;5.45;;;3.38;;
39486;SDS011;25173;50.430;18.926;2023-07-08T09:17:33;4.85;;;3.20;;
39486;SDS011;25173;50.430;18.926;2023-07-08T09:20:34;5.45;;;3.20;;
39486;SDS011;25173;50.430;18.926;2023-07-08T09:23:36;8.27;;;4.47;;
39486;SDS011;25173;50.430;18.926;2023-07-08T09:26:38;6.38;;;4.00;;
39486;SDS011;25173;50.430;18.926;2023-07-08T09:29:41;5.20;;;3.63;;
39486;SDS011;25173;50.430;18.926;2023-07-08T09:32:41;6.20;;;3.58;;
39486;SDS011;25173;50.430;18.926;2023-07-08T09:35:48;7.35;;;3.50;;
39486;SDS011;25173;50.430;18.926;2023-07-08T09:38:50;5.00;;;3.22;;
39486;SDS011;25173;50.430;18.926;2023-07-08T09:41:51;4.15;;;2.75;;
39486;SDS011;25173;50.430;18.926;2023-07-08T09:44:55;12.40;;;3.63;;
39486;SDS011;25173;50.430;18.926;2023-07-08T09:48:01;5.13;;;3.53;;
39486;SDS011;25173;50.430;18.926;2023-07-08T09:51:02;6.57;;;3.22;;
39486;SDS011;25173;50.430;18.926;2023-07-08T09:54:04;5.72;;;3.05;;
39486;SDS011;25173;50.430;18.926;2023-07-08T09:57:05;4.13;;;3.13;;
39486;SDS011;25173;50.430;18.926;2023-07-08T10:00:14;6.18;;;3.20;;
39486;SDS011;25173;50.430;18.926;2023-07-08T10:03:20;5.07;;;2.88;;
39486;SDS011;25173;50.430;18.926;2023-07-08T10:06:33;4.80;;;3.50;;
39486;SDS011;25173;50.430;18.926;2023-07-08T10:12:36;4.57;;;2.92;;
39486;SDS011;25173;50.430;18.926;2023-07-08T10:15:40;6.20;;;3.45;;
39486;SDS011;25173;50.430;18.926;2023-07-08T10:18:44;6.60;;;3.53;;
39486;SDS011;25173;50.430;18.926;2023-07-08T10:21:51;4.90;;;3.42;;
39486;SDS011;25173;50.430;18.926;2023-07-08T10:25:08;9.33;;;4.00;;
39486;SDS011;25173;50.430;18.926;2023-07-08T10:31:31;6.22;;;3.58;;
39486;SDS011;25173;50.430;18.926;2023-07-08T10:38:01;3.50;;;2.72;;
39486;SDS011;25173;50.430;18.926;2023-07-08T10:44:20;3.97;;;2.50;;
39486;SDS011;25173;50.430;18.926;2023-07-08T10:57:53;4.72;;;2.85;;
39486;SDS011;25173;50.430;18.926;2023-07-08T11:01:37;4.47;;;3.10;;
39486;SDS011;25173;50.430;18.926;2023-07-08T11:04:59;2.90;;;2.60;;
39486;SDS011;25173;50.430;18.926;2023-07-08T11:08:38;5.10;;;2.80;;
39486;SDS011;25173;50.430;18.926;2023-07-08T11:11:46;3.30;;;2.53;;
39486;SDS011;25173;50.430;18.926;2023-07-08T11:15:13;3.78;;;2.40;;
39486;SDS011;25173;50.430;18.926;2023-07-08T11:18:25;5.43;;;2.70;;
39486;SDS011;25173;50.430;18.926;2023-07-08T11:21:33;5.22;;;3.05;;
39486;SDS011;25173;50.430;18.926;2023-07-08T11:24:47;4.53;;;3.22;;
39486;SDS011;25173;50.430;18.926;2023-07-08T11:27:51;2.95;;;2.53;;
39486;SDS011;25173;50.430;18.926;2023-07-08T11:30:54;5.18;;;3.38;;
39486;SDS011;25173;50.430;18.926;2023-07-08T11:34:01;3.60;;;2.60;;
39486;SDS011;25173;50.430;18.926;2023-07-08T11:37:03;6.20;;;2.45;;
39486;SDS011;25173;50.430;18.926;2023-07-08T11:43:05;4.68;;;2.97;;
39486;SDS011;25173;50.430;18.926;2023-07-08T11:46:06;3.53;;;2.88;;
39486;SDS011;25173;50.430;18.926;2023-07-08T11:49:12;6.60;;;3.05;;
39486;SDS011;25173;50.430;18.926;2023-07-08T11:52:16;5.45;;;2.70;;
39486;SDS011;25173;50.430;18.926;2023-07-08T11:55:26;7.30;;;3.47;;
39486;SDS011;25173;50.430;18.926;2023-07-08T12:02:04;5.75;;;2.60;;
39486;SDS011;25173;50.430;18.926;2023-07-08T12:05:13;3.78;;;2.63;;
39486;SDS011;25173;50.430;18.926;2023-07-08T12:08:15;5.00;;;2.50;;
39486;SDS011;25173;50.430;18.926;2023-07-08T12:11:18;3.65;;;2.80;;
39486;SDS011;25173;50.430;18.926;2023-07-08T12:14:18;4.18;;;2.50;;
39486;SDS011;25173;50.430;18.926;2023-07-08T12:17:19;4.75;;;2.92;;
39486;SDS011;25173;50.430;18.926;2023-07-08T12:20:22;3.33;;;2.67;;
39486;SDS011;25173;50.430;18.926;2023-07-08T12:23:29;5.97;;;2.80;;
39486;SDS011;25173;50.430;18.926;2023-07-08T12:26:30;2.72;;;2.33;;
39486;SDS011;25173;50.430;18.926;2023-07-08T12:29:32;3.80;;;2.58;;
39486;SDS011;25173;50.430;18.926;2023-07-08T12:32:33;5.22;;;2.70;;
39486;SDS011;25173;50.430;18.926;2023-07-08T12:35:35;4.05;;;2.90;;
39486;SDS011;25173;50.430;18.926;2023-07-08T12:38:42;3.22;;;2.28;;
39486;SDS011;25173;50.430;18.926;2023-07-08T12:41:47;4.90;;;2.40;;
39486;SDS011;25173;50.430;18.926;2023-07-08T12:44:47;4.45;;;2.55;;
39486;SDS011;25173;50.430;18.926;2023-07-08T12:47:49;3.55;;;2.70;;
39486;SDS011;25173;50.430;18.926;2023-07-08T12:50:49;3.80;;;2.53;;
39486;SDS011;25173;50.430;18.926;2023-07-08T12:53:51;3.28;;;2.72;;
39486;SDS011;25173;50.430;18.926;2023-07-08T12:56:52;6.35;;;2.67;;
39486;SDS011;25173;50.430;18.926;2023-07-08T12:59:54;2.97;;;2.28;;
39486;SDS011;25173;50.430;18.926;2023-07-08T13:02:59;4.57;;;2.60;;
39486;SDS011;25173;50.430;18.926;2023-07-08T13:06:05;5.97;;;2.63;;
39486;SDS011;25173;50.430;18.926;2023-07-08T13:12:34;3.08;;;2.60;;
39486;SDS011;25173;50.430;18.926;2023-07-08T13:15:39;10.65;;;2.47;;
39486;SDS011;25173;50.430;18.926;2023-07-08T13:18:42;7.03;;;2.78;;
39486;SDS011;25173;50.430;18.926;2023-07-08T13:21:43;2.75;;;2.28;;
39486;SDS011;25173;50.430;18.926;2023-07-08T13:24:44;4.00;;;2.50;;
39486;SDS011;25173;50.430;18.926;2023-07-08T13:27:54;9.40;;;2.38;;
39486;SDS011;25173;50.430;18.926;2023-07-08T13:31:00;4.43;;;2.45;;
39486;SDS011;25173;50.430;18.926;2023-07-08T13:34:10;3.60;;;2.45;;
39486;SDS011;25173;50.430;18.926;2023-07-08T13:37:23;3.60;;;2.10;;
39486;SDS011;25173;50.430;18.926;2023-07-08T13:40:26;4.43;;;2.42;;
39486;SDS011;25173;50.430;18.926;2023-07-08T13:43:30;4.32;;;2.15;;
39486;SDS011;25173;50.430;18.926;2023-07-08T13:49:39;2.75;;;2.15;;
39486;SDS011;25173;50.430;18.926;2023-07-08T13:52:44;4.97;;;2.00;;
39486;SDS011;25173;50.430;18.926;2023-07-08T13:55:45;3.47;;;1.95;;
39486;SDS011;25173;50.430;18.926;2023-07-08T13:58:47;2.88;;;2.20;;
39486;SDS011;25173;50.430;18.926;2023-07-08T14:01:50;7.43;;;1.80;;
39486;SDS011;25173;50.430;18.926;2023-07-08T14:04:52;6.45;;;2.00;;
39486;SDS011;25173;50.430;18.926;2023-07-08T14:07:54;2.65;;;2.10;;
39486;SDS011;25173;50.430;18.926;2023-07-08T14:10:55;2.92;;;2.25;;
39486;SDS011;25173;50.430;18.926;2023-07-08T14:13:55;3.25;;;2.00;;
39486;SDS011;25173;50.430;18.926;2023-07-08T14:16:56;5.03;;;2.28;;
39486;SDS011;25173;50.430;18.926;2023-07-08T14:19:56;4.28;;;1.90;;
39486;SDS011;25173;50.430;18.926;2023-07-08T14:22:57;5.10;;;2.05;;
39486;SDS011;25173;50.430;18.926;2023-07-08T14:25:58;12.00;;;2.65;;
39486;SDS011;25173;50.430;18.926;2023-07-08T14:28:58;3.92;;;2.08;;
39486;SDS011;25173;50.430;18.926;2023-07-08T14:31:59;2.42;;;1.70;;
39486;SDS011;25173;50.430;18.926;2023-07-08T14:35:02;2.65;;;1.90;;
39486;SDS011;25173;50.430;18.926;2023-07-08T14:38:13;4.97;;;1.73;;
39486;SDS011;25173;50.430;18.926;2023-07-08T14:41:14;2.13;;;1.85;;
39486;SDS011;25173;50.430;18.926;2023-07-08T14:47:15;4.03;;;1.42;;
39486;SDS011;25173;50.430;18.926;2023-07-08T14:50:18;1.88;;;1.65;;
39486;SDS011;25173;50.430;18.926;2023-07-08T14:53:18;2.63;;;1.85;;
39486;SDS011;25173;50.430;18.926;2023-07-08T14:56:19;3.63;;;1.60;;
39486;SDS011;25173;50.430;18.926;2023-07-08T14:59:21;2.70;;;1.98;;
39486;SDS011;25173;50.430;18.926;2023-07-08T15:05:26;2.88;;;1.80;;
39486;SDS011;25173;50.430;18.926;2023-07-08T15:08:28;4.72;;;2.20;;
39486;SDS011;25173;50.430;18.926;2023-07-08T15:11:28;1.70;;;1.60;;
39486;SDS011;25173;50.430;18.926;2023-07-08T15:14:29;6.22;;;1.90;;
39486;SDS011;25173;50.430;18.926;2023-07-08T15:17:30;4.13;;;1.88;;
39486;SDS011;25173;50.430;18.926;2023-07-08T15:20:31;6.18;;;2.30;;
39486;SDS011;25173;50.430;18.926;2023-07-08T15:23:32;6.15;;;1.70;;
39486;SDS011;25173;50.430;18.926;2023-07-08T15:26:33;5.22;;;1.40;;
39486;SDS011;25173;50.430;18.926;2023-07-08T15:29:33;3.63;;;2.20;;
39486;SDS011;25173;50.430;18.926;2023-07-08T15:32:34;3.13;;;1.60;;
39486;SDS011;25173;50.430;18.926;2023-07-08T15:35:35;4.60;;;2.10;;
39486;SDS011;25173;50.430;18.926;2023-07-08T15:38:35;4.20;;;1.67;;
39486;SDS011;25173;50.430;18.926;2023-07-08T15:41:36;3.63;;;1.92;;
39486;SDS011;25173;50.430;18.926;2023-07-08T15:44:40;1.55;;;1.40;;
39486;SDS011;25173;50.430;18.926;2023-07-08T15:47:41;3.50;;;2.00;;
39486;SDS011;25173;50.430;18.926;2023-07-08T15:50:41;2.17;;;1.98;;
39486;SDS011;25173;50.430;18.926;2023-07-08T15:53:42;1.85;;;1.52;;
39486;SDS011;25173;50.430;18.926;2023-07-08T15:56:43;6.95;;;2.28;;
39486;SDS011;25173;50.430;18.926;2023-07-08T15:59:44;5.47;;;1.83;;
39486;SDS011;25173;50.430;18.926;2023-07-08T16:02:46;1.67;;;1.42;;
39486;SDS011;25173;50.430;18.926;2023-07-08T16:08:51;2.83;;;1.70;;
39486;SDS011;25173;50.430;18.926;2023-07-08T16:11:51;1.88;;;1.75;;
39486;SDS011;25173;50.430;18.926;2023-07-08T16:14:52;3.38;;;2.22;;
39486;SDS011;25173;50.430;18.926;2023-07-08T16:17:53;2.20;;;1.75;;
39486;SDS011;25173;50.430;18.926;2023-07-08T16:20:53;1.85;;;1.55;;
39486;SDS011;25173;50.430;18.926;2023-07-08T16:23:54;3.00;;;1.50;;
39486;SDS011;25173;50.430;18.926;2023-07-08T16:26:55;2.13;;;1.83;;
39486;SDS011;25173;50.430;18.926;2023-07-08T16:29:55;2.20;;;1.90;;
39486;SDS011;25173;50.430;18.926;2023-07-08T16:32:56;3.58;;;1.50;;
39486;SDS011;25173;50.430;18.926;2023-07-08T16:35:57;5.50;;;1.73;;
39486;SDS011;25173;50.430;18.926;2023-07-08T16:38:57;2.42;;;1.58;;
39486;SDS011;25173;50.430;18.926;2023-07-08T16:41:58;3.53;;;1.90;;
39486;SDS011;25173;50.430;18.926;2023-07-08T16:44:59;3.85;;;1.95;;
39486;SDS011;25173;50.430;18.926;2023-07-08T16:47:59;4.25;;;1.83;;
39486;SDS011;25173;50.430;18.926;2023-07-08T16:51:00;2.65;;;1.98;;
39486;SDS011;25173;50.430;18.926;2023-07-08T16:54:11;2.45;;;1.80;;
39486;SDS011;25173;50.430;18.926;2023-07-08T16:57:13;2.75;;;1.35;;
39486;SDS011;25173;50.430;18.926;2023-07-08T17:00:18;2.20;;;1.60;;
39486;SDS011;25173;50.430;18.926;2023-07-08T17:03:20;5.03;;;2.55;;
39486;SDS011;25173;50.430;18.926;2023-07-08T17:06:21;7.30;;;2.05;;
39486;SDS011;25173;50.430;18.926;2023-07-08T17:09:22;3.40;;;2.25;;
39486;SDS011;25173;50.430;18.926;2023-07-08T17:12:23;3.70;;;2.17;;
39486;SDS011;25173;50.430;18.926;2023-07-08T17:15:25;2.78;;;2.10;;
39486;SDS011;25173;50.430;18.926;2023-07-08T17:18:29;1.77;;;1.50;;
39486;SDS011;25173;50.430;18.926;2023-07-08T17:21:30;3.95;;;1.80;;
39486;SDS011;25173;50.430;18.926;2023-07-08T17:24:31;3.67;;;2.20;;
39486;SDS011;25173;50.430;18.926;2023-07-08T17:27:32;2.45;;;1.85;;
39486;SDS011;25173;50.430;18.926;2023-07-08T17:30:32;8.10;;;1.95;;
39486;SDS011;25173;50.430;18.926;2023-07-08T17:33:33;2.30;;;1.88;;
39486;SDS011;25173;50.430;18.926;2023-07-08T17:36:34;2.20;;;1.90;;
39486;SDS011;25173;50.430;18.926;2023-07-08T17:39:36;7.97;;;2.17;;
39486;SDS011;25173;50.430;18.926;2023-07-08T17:42:36;3.95;;;2.58;;
39486;SDS011;25173;50.430;18.926;2023-07-08T17:45:39;2.88;;;2.30;;
39486;SDS011;25173;50.430;18.926;2023-07-08T17:48:41;6.28;;;2.45;;
39486;SDS011;25173;50.430;18.926;2023-07-08T17:51:46;5.07;;;2.03;;
39486;SDS011;25173;50.430;18.926;2023-07-08T17:54:47;4.68;;;2.40;;
39486;SDS011;25173;50.430;18.926;2023-07-08T17:57:48;5.22;;;3.00;;
39486;SDS011;25173;50.430;18.926;2023-07-08T18:00:50;7.45;;;4.88;;
39486;SDS011;25173;50.430;18.926;2023-07-08T18:03:51;7.63;;;5.40;;
39486;SDS011;25173;50.430;18.926;2023-07-08T18:06:52;13.30;;;7.47;;
39486;SDS011;25173;50.430;18.926;2023-07-08T18:09:53;9.65;;;7.28;;
39486;SDS011;25173;50.430;18.926;2023-07-08T18:12:53;13.60;;;8.20;;
39486;SDS011;25173;50.430;18.926;2023-07-08T18:15:55;11.70;;;7.82;;
39486;SDS011;25173;50.430;18.926;2023-07-08T18:18:56;12.07;;;6.07;;
39486;SDS011;25173;50.430;18.926;2023-07-08T18:21:57;10.48;;;6.25;;
39486;SDS011;25173;50.430;18.926;2023-07-08T18:24:57;11.35;;;7.82;;
39486;SDS011;25173;50.430;18.926;2023-07-08T18:27:58;12.23;;;6.95;;
39486;SDS011;25173;50.430;18.926;2023-07-08T18:30:59;14.18;;;7.68;;
39486;SDS011;25173;50.430;18.926;2023-07-08T18:34:00;17.48;;;8.00;;
39486;SDS011;25173;50.430;18.926;2023-07-08T18:37:02;15.55;;;7.60;;
39486;SDS011;25173;50.430;18.926;2023-07-08T18:40:03;10.73;;;7.50;;
39486;SDS011;25173;50.430;18.926;2023-07-08T18:43:18;13.93;;;6.97;;
39486;SDS011;25173;50.430;18.926;2023-07-08T18:46:21;10.38;;;7.65;;
39486;SDS011;25173;50.430;18.926;2023-07-08T18:49:23;18.85;;;7.88;;
39486;SDS011;25173;50.430;18.926;2023-07-08T18:52:24;13.63;;;8.75;;
39486;SDS011;25173;50.430;18.926;2023-07-08T18:55:25;15.82;;;9.23;;
39486;SDS011;25173;50.430;18.926;2023-07-08T18:58:25;16.63;;;7.95;;
39486;SDS011;25173;50.430;18.926;2023-07-08T19:01:26;10.38;;;6.47;;
39486;SDS011;25173;50.430;18.926;2023-07-08T19:04:27;14.15;;;7.43;;